CheckWX is a tool to help pilots better visualize weather data.  It is not intended as a substitute for an official pre-flight weather briefing.

15:46:32 UTC

PTRO METAR
Babelthuap / Koror Airport
Babelthuap Island, Palau
Current

57 mins ago

PTRO 171450Z 00000KT 15SM SCT016 BKN300 24/23 A2986
Observed
Oct-17 @ 14:50 UTC
Visibility
24,100 meters
Flight Rules
VFR
Cloud Levels
  • Scattered at 1,600' AGL
  • Broken at 30,000' AGL
Temperature
24°C / 75°F
Dewpoint
23°C / 73°F
Humidity
94%
Altimeter
29.86" Hg
Pressure
1011.22 hPa
Previous

2 hours ago

PTRO 171350Z 00000KT 15SM SCT016 BKN300 25/24 A2986
Observed
Oct-17 @ 13:50 UTC
Visibility
24,100 meters
Flight Rules
VFR
Cloud Levels
  • Scattered at 1,600' AGL
  • Broken at 30,000' AGL
Temperature
25°C / 77°F
Dewpoint
24°C / 75°F
Humidity
94%
Altimeter
29.86" Hg
Pressure
1011.22 hPa
Previous

3 hours ago

PTRO 171250Z 00000KT 15SM SCT016 SCT120 BKN300 25/24 A2985
Observed
Oct-17 @ 12:50 UTC
Visibility
24,100 meters
Flight Rules
VFR
Cloud Levels
  • Scattered at 1,600' AGL
  • Scattered at 12,000' AGL
  • Broken at 30,000' AGL
Temperature
25°C / 77°F
Dewpoint
24°C / 75°F
Humidity
94%
Altimeter
29.85" Hg
Pressure
1010.82 hPa